Time;durP1;ratioP1;P1;durP2;ratioP2;P2;SDS_P1;SDS_P2;PMS_P1;PMS_P2;Temp;Humidity;BMP_temperature;BMP_pressure;BME280_temperature;BME280_humidity;BME280_pressure;Samples;Min_cycle;Max_cycle;Signal;HPM_P1;HPM_P2
2023/12/10 00:00:09;;;;;;;43.60;6.40;;;;;;;;;;5010439;28;20029;-77
2023/12/10 00:02:37;;;;;;;30.97;6.83;;;;;;;;;;5011445;28;20026;-78
2023/12/10 00:05:03;;;;;;;36.53;6.83;;;;;;;;;;5024833;28;20037;-78
2023/12/10 00:07:29;;;;;;;32.77;7.33;;;;;;;;;;5008644;28;20053;-78
2023/12/10 00:09:55;;;;;;;51.37;7.50;;;;;;;;;;5018711;28;20334;-78
2023/12/10 00:12:21;;;;;;;40.93;8.10;;;;;;;;;;5014350;28;20029;-77
2023/12/10 00:14:53;;;;;;;40.73;6.17;;;;;;;;;;5005230;28;20030;-77
2023/12/10 00:17:19;;;;;;;40.70;8.35;;;;;;;;;;5015847;28;20029;-78
2023/12/10 00:19:45;;;;;;;34.23;6.00;;;;;;;;;;5016362;28;20022;-78
2023/12/10 00:22:11;;;;;;;34.97;7.40;;;;;;;;;;5016826;28;20045;-76
2023/12/10 00:24:37;;;;;;;36.70;6.67;;;;;;;;;;5016603;28;20049;-77
2023/12/10 00:27:03;;;;;;;32.83;7.40;;;;;;;;;;5016234;28;20052;-78
2023/12/10 00:29:29;;;;;;;31.50;6.17;;;;;;;;;;5014974;28;20040;-78
2023/12/10 00:31:57;;;;;;;45.33;7.77;;;;;;;;;;5016907;28;20506;-78
2023/12/10 00:34:23;;;;;;;44.37;8.53;;;;;;;;;;5016869;28;20113;-78
2023/12/10 00:36:52;;;;;;;36.63;6.20;;;;;;;;;;5031811;28;20128;-78
2023/12/10 00:39:18;;;;;;;41.77;7.13;;;;;;;;;;5017010;28;20033;-77
2023/12/10 00:41:44;;;;;;;36.23;6.50;;;;;;;;;;5034129;28;20028;-78
2023/12/10 00:44:10;;;;;;;42.27;8.60;;;;;;;;;;5016712;28;20143;-78
2023/12/10 00:46:36;;;;;;;29.77;5.43;;;;;;;;;;5032427;28;20033;-78
2023/12/10 00:49:02;;;;;;;32.87;6.70;;;;;;;;;;5012041;28;21744;-78
2023/12/10 00:51:28;;;;;;;43.07;7.27;;;;;;;;;;5016537;28;20037;-78
2023/12/10 00:53:54;;;;;;;34.40;7.63;;;;;;;;;;5016485;28;20071;-79
2023/12/10 00:56:20;;;;;;;32.47;6.10;;;;;;;;;;5012935;28;21892;-78
2023/12/10 00:58:46;;;;;;;37.90;6.93;;;;;;;;;;5015375;28;20069;-78
2023/12/10 01:01:15;;;;;;;43.73;7.53;;;;;;;;;;5013242;28;20052;-79
2023/12/10 01:03:41;;;;;;;31.17;5.67;;;;;;;;;;5015271;28;20494;-78
2023/12/10 01:06:32;;;;;;;42.70;6.70;;;;;;;;;;5016718;28;20029;-78
2023/12/10 01:09:26;;;;;;;41.37;7.70;;;;;;;;;;5031788;28;20233;-78
2023/12/10 01:11:52;;;;;;;42.90;7.37;;;;;;;;;;5016423;28;20029;-77
2023/12/10 01:14:24;;;;;;;35.63;6.90;;;;;;;;;;5016510;28;20029;-78
2023/12/10 01:16:50;;;;;;;35.90;6.82;;;;;;;;;;5033933;28;20848;-77
2023/12/10 01:19:35;;;;;;;34.53;6.73;;;;;;;;;;5015105;28;20044;-78
2023/12/10 01:22:01;;;;;;;34.67;7.60;;;;;;;;;;5015502;28;20034;-78
2023/12/10 01:24:30;;;;;;;31.77;7.37;;;;;;;;;;5018272;28;20033;-78
2023/12/10 01:26:56;;;;;;;36.30;5.80;;;;;;;;;;5015332;28;20033;-78
2023/12/10 01:29:25;;;;;;;25.73;5.30;;;;;;;;;;5018765;28;20021;-77
2023/12/10 01:31:51;;;;;;;23.77;4.63;;;;;;;;;;5016099;28;20017;-78
2023/12/10 01:34:18;;;;;;;34.33;6.10;;;;;;;;;;5016389;28;20045;-78
2023/12/10 01:36:47;;;;;;;33.07;5.83;;;;;;;;;;5014035;28;20037;-77
2023/12/10 01:39:15;;;;;;;33.10;6.23;;;;;;;;;;5014618;28;20029;-78
2023/12/10 01:41:41;;;;;;;24.67;4.73;;;;;;;;;;5015353;28;20022;-77
2023/12/10 01:44:09;;;;;;;32.13;5.63;;;;;;;;;;5013616;28;20128;-78
2023/12/10 01:46:35;;;;;;;24.60;4.67;;;;;;;;;;5013256;28;20026;-78
2023/12/10 01:49:02;;;;;;;29.43;5.37;;;;;;;;;;5014053;28;20030;-78
2023/12/10 01:51:28;;;;;;;38.90;6.00;;;;;;;;;;5014984;28;20029;-78
2023/12/10 01:53:55;;;;;;;25.10;4.63;;;;;;;;;;5013998;28;20036;-78
2023/12/10 01:56:23;;;;;;;26.63;4.40;;;;;;;;;;5014234;28;20129;-76
2023/12/10 01:58:50;;;;;;;21.60;3.70;;;;;;;;;;5030323;28;20033;-78
2023/12/10 02:01:17;;;;;;;32.17;5.17;;;;;;;;;;5015197;28;20064;-78
2023/12/10 02:03:44;;;;;;;25.60;5.03;;;;;;;;;;5013460;28;20033;-78
2023/12/10 02:06:10;;;;;;;29.80;5.33;;;;;;;;;;5010928;28;20068;-78
2023/12/10 02:08:36;;;;;;;22.13;5.10;;;;;;;;;;5013942;28;20030;-77
2023/12/10 02:11:02;;;;;;;28.93;4.97;;;;;;;;;;5017726;28;20025;-77
2023/12/10 02:13:28;;;;;;;24.67;4.10;;;;;;;;;;5031493;28;20508;-77
2023/12/10 02:15:54;;;;;;;30.60;4.57;;;;;;;;;;5013641;28;20029;-78
2023/12/10 02:18:20;;;;;;;28.27;4.47;;;;;;;;;;5013571;28;20029;-77
2023/12/10 02:20:50;;;;;;;19.17;3.97;;;;;;;;;;5012541;28;20036;-77
2023/12/10 02:23:27;;;;;;;29.23;5.70;;;;;;;;;;5013748;28;20041;-77
2023/12/10 02:25:53;;;;;;;30.13;5.10;;;;;;;;;;5030697;28;20040;-78
2023/12/10 02:28:22;;;;;;;24.03;4.90;;;;;;;;;;5013215;28;20026;-78
2023/12/10 02:30:49;;;;;;;18.17;4.07;;;;;;;;;;5029685;28;20172;-78
2023/12/10 02:33:17;;;;;;;36.43;5.20;;;;;;;;;;5012993;28;20095;-77
2023/12/10 02:35:43;;;;;;;35.43;6.37;;;;;;;;;;5013877;28;20052;-77
2023/12/10 02:38:09;;;;;;;23.43;4.87;;;;;;;;;;5013255;28;20087;-78
2023/12/10 02:40:35;;;;;;;28.40;5.30;;;;;;;;;;5013558;28;20034;-77
2023/12/10 02:43:02;;;;;;;24.90;5.57;;;;;;;;;;5009312;28;20833;-77
2023/12/10 02:45:28;;;;;;;26.13;4.70;;;;;;;;;;5013656;28;20091;-78
2023/12/10 02:47:54;;;;;;;26.23;5.50;;;;;;;;;;5012859;28;20037;-77
2023/12/10 02:50:20;;;;;;;27.13;5.07;;;;;;;;;;5028569;28;20030;-78
2023/12/10 02:52:46;;;;;;;25.83;4.57;;;;;;;;;;5009535;28;20073;-78
2023/12/10 02:55:12;;;;;;;20.83;4.33;;;;;;;;;;5013558;28;20053;-79
2023/12/10 02:57:41;;;;;;;26.70;4.83;;;;;;;;;;5012088;28;20037;-78
2023/12/10 03:00:10;;;;;;;24.53;4.30;;;;;;;;;;5011328;28;20409;-78
2023/12/10 03:02:36;;;;;;;27.20;3.70;;;;;;;;;;5024840;28;20042;-78
2023/12/10 03:05:03;;;;;;;22.27;3.33;;;;;;;;;;5013035;28;20037;-79
2023/12/10 03:07:31;;;;;;;26.20;3.90;;;;;;;;;;5028343;28;21704;-77
2023/12/10 03:09:57;;;;;;;18.80;4.07;;;;;;;;;;5026892;28;20480;-78
2023/12/10 03:12:23;;;;;;;31.60;4.53;;;;;;;;;;5029624;28;20064;-77
2023/12/10 03:14:49;;;;;;;20.13;4.37;;;;;;;;;;5013390;28;20036;-77
2023/12/10 03:17:15;;;;;;;32.30;5.13;;;;;;;;;;5012439;28;20442;-78
2023/12/10 03:19:41;;;;;;;29.67;5.77;;;;;;;;;;5010400;28;20098;-77
2023/12/10 03:22:10;;;;;;;29.03;4.63;;;;;;;;;;5013896;28;20124;-77
2023/12/10 03:24:36;;;;;;;29.83;4.20;;;;;;;;;;5012687;28;20044;-78
2023/12/10 03:27:04;;;;;;;30.10;5.20;;;;;;;;;;5010010;28;20072;-77
2023/12/10 03:29:30;;;;;;;33.07;5.00;;;;;;;;;;5013357;28;20026;-78
2023/12/10 03:31:56;;;;;;;35.40;5.43;;;;;;;;;;5013182;28;20039;-78
2023/12/10 03:34:22;;;;;;;26.47;3.60;;;;;;;;;;5013906;28;20112;-78
2023/12/10 03:36:48;;;;;;;33.03;6.53;;;;;;;;;;5015199;28;20460;-78
2023/12/10 03:39:16;;;;;;;26.80;4.13;;;;;;;;;;5032052;28;20055;-79
2023/12/10 03:41:42;;;;;;;36.97;4.57;;;;;;;;;;5012084;28;20045;-78
2023/12/10 03:44:08;;;;;;;34.17;4.43;;;;;;;;;;5017502;28;20496;-78
2023/12/10 03:46:37;;;;;;;32.87;5.33;;;;;;;;;;5017194;28;20067;-77
2023/12/10 03:49:03;;;;;;;33.93;6.87;;;;;;;;;;5018002;28;20022;-77
2023/12/10 03:51:29;;;;;;;33.90;5.23;;;;;;;;;;5033966;28;20041;-78
2023/12/10 03:53:55;;;;;;;33.57;5.77;;;;;;;;;;5015787;28;20033;-77
2023/12/10 03:56:21;;;;;;;31.07;5.80;;;;;;;;;;5032692;28;20091;-78
2023/12/10 03:58:47;;;;;;;42.20;6.47;;;;;;;;;;5016580;28;20412;-78
2023/12/10 04:01:13;;;;;;;36.27;4.97;;;;;;;;;;5030805;28;20030;-77
2023/12/10 04:03:39;;;;;;;32.30;5.13;;;;;;;;;;5034584;28;20025;-78
2023/12/10 04:06:05;;;;;;;38.60;5.63;;;;;;;;;;5018969;28;20120;-78
2023/12/10 04:08:31;;;;;;;33.93;4.63;;;;;;;;;;5018126;28;20029;-78
2023/12/10 04:10:57;;;;;;;38.10;7.10;;;;;;;;;;5036287;28;20407;-78
2023/12/10 04:13:23;;;;;;;24.97;4.87;;;;;;;;;;5020015;28;20454;-78
2023/12/10 04:16:20;;;;;;;31.57;5.10;;;;;;;;;;5013312;28;20056;-78
2023/12/10 04:18:46;;;;;;;34.37;6.03;;;;;;;;;;5012323;28;20193;-78
2023/12/10 04:21:14;;;;;;;25.80;4.50;;;;;;;;;;5035056;28;20056;-78
2023/12/10 04:23:40;;;;;;;40.63;5.90;;;;;;;;;;5013715;28;20033;-78
2023/12/10 04:26:06;;;;;;;40.20;4.57;;;;;;;;;;5033114;28;20567;-78
2023/12/10 04:28:32;;;;;;;47.70;6.40;;;;;;;;;;5017431;28;20029;-78
2023/12/10 04:30:58;;;;;;;30.80;4.77;;;;;;;;;;5032608;28;20059;-78
2023/12/10 04:33:24;;;;;;;33.70;5.23;;;;;;;;;;5017657;28;20053;-78
2023/12/10 04:35:50;;;;;;;36.47;6.40;;;;;;;;;;5014430;28;20029;-77
2023/12/10 04:38:16;;;;;;;30.87;4.60;;;;;;;;;;5016273;28;20087;-78
2023/12/10 04:40:43;;;;;;;43.97;5.83;;;;;;;;;;5031931;28;20055;-78
2023/12/10 04:43:09;;;;;;;29.63;5.70;;;;;;;;;;5018152;28;20415;-78
2023/12/10 04:45:35;;;;;;;37.07;5.47;;;;;;;;;;5012785;28;20033;-77
2023/12/10 04:48:01;;;;;;;51.07;7.20;;;;;;;;;;5015546;28;20033;-78
2023/12/10 04:50:27;;;;;;;36.47;4.57;;;;;;;;;;5019517;28;20029;-77
2023/12/10 04:52:53;;;;;;;32.33;5.23;;;;;;;;;;5013973;28;20048;-78
2023/12/10 04:55:19;;;;;;;39.30;4.83;;;;;;;;;;5019453;28;20018;-77
2023/12/10 04:57:45;;;;;;;43.30;6.63;;;;;;;;;;5013842;28;20087;-78
2023/12/10 05:00:11;;;;;;;35.67;4.93;;;;;;;;;;5019061;28;20038;-77
2023/12/10 05:02:37;;;;;;;32.20;5.80;;;;;;;;;;5015601;28;20441;-77
2023/12/10 05:05:08;;;;;;;36.50;5.67;;;;;;;;;;5017731;28;20562;-78
2023/12/10 05:07:34;;;;;;;34.37;5.40;;;;;;;;;;5015647;28;20029;-78
2023/12/10 05:10:00;;;;;;;29.40;4.97;;;;;;;;;;5019165;28;20473;-78
2023/12/10 05:12:26;;;;;;;29.83;5.40;;;;;;;;;;5025027;28;20415;-78
2023/12/10 05:14:52;;;;;;;36.30;6.07;;;;;;;;;;5019008;28;20030;-78
2023/12/10 05:17:18;;;;;;;37.23;6.03;;;;;;;;;;5012216;28;20045;-78
2023/12/10 05:19:44;;;;;;;40.23;5.77;;;;;;;;;;5007692;28;20080;-78
2023/12/10 05:22:10;;;;;;;33.90;5.53;;;;;;;;;;5018251;28;20052;-77
2023/12/10 05:24:36;;;;;;;27.40;5.17;;;;;;;;;;5015654;28;20112;-78
2023/12/10 05:27:02;;;;;;;37.03;5.47;;;;;;;;;;5016291;28;20465;-77
2023/12/10 05:29:28;;;;;;;38.97;5.40;;;;;;;;;;5018511;28;20155;-78
2023/12/10 05:31:54;;;;;;;25.80;4.53;;;;;;;;;;5020260;28;20116;-78
2023/12/10 05:34:20;;;;;;;34.97;5.47;;;;;;;;;;5018858;28;20335;-77
2023/12/10 05:36:46;;;;;;;37.40;5.27;;;;;;;;;;5036121;28;20036;-78
2023/12/10 05:39:13;;;;;;;24.53;4.60;;;;;;;;;;5017260;28;20033;-78
2023/12/10 05:41:39;;;;;;;40.53;6.17;;;;;;;;;;5015757;28;20067;-78
2023/12/10 05:44:08;;;;;;;39.70;5.50;;;;;;;;;;5012270;28;20099;-78
2023/12/10 05:46:34;;;;;;;28.57;4.60;;;;;;;;;;5015223;28;20057;-78
2023/12/10 05:49:01;;;;;;;24.10;4.13;;;;;;;;;;5030930;28;20026;-78
2023/12/10 05:51:27;;;;;;;25.57;5.07;;;;;;;;;;5011444;28;20245;-77
2023/12/10 05:53:56;;;;;;;29.30;5.03;;;;;;;;;;5019964;28;20091;-77
2023/12/10 05:56:22;;;;;;;33.77;5.03;;;;;;;;;;5034820;28;20088;-77
2023/12/10 05:58:50;;;;;;;18.83;4.47;;;;;;;;;;5033786;28;20128;-78
2023/12/10 06:01:16;;;;;;;27.87;4.93;;;;;;;;;;5010925;28;20022;-77
2023/12/10 06:03:42;;;;;;;24.50;4.63;;;;;;;;;;5020836;28;20370;-78
2023/12/10 06:06:08;;;;;;;24.77;4.80;;;;;;;;;;5005271;28;20053;-77
2023/12/10 06:08:34;;;;;;;35.70;6.03;;;;;;;;;;5009110;28;20068;-77
2023/12/10 06:11:01;;;;;;;33.87;5.27;;;;;;;;;;5014565;28;20022;-79
2023/12/10 06:13:27;;;;;;;23.27;5.90;;;;;;;;;;5017972;28;20175;-77
2023/12/10 06:16:00;;;;;;;41.53;5.83;;;;;;;;;;5007249;28;20108;-78
2023/12/10 06:18:26;;;;;;;34.40;6.30;;;;;;;;;;5027130;28;20450;-78
2023/12/10 06:20:55;;;;;;;29.57;4.70;;;;;;;;;;5012897;28;20041;-77
2023/12/10 06:23:21;;;;;;;19.97;3.60;;;;;;;;;;5010510;28;20033;-78
2023/12/10 06:25:50;;;;;;;24.47;4.03;;;;;;;;;;5012208;28;20040;-76
2023/12/10 06:28:16;;;;;;;23.87;4.27;;;;;;;;;;5012415;28;20044;-78
2023/12/10 06:30:42;;;;;;;31.10;4.93;;;;;;;;;;5027470;28;20117;-77
2023/12/10 06:33:08;;;;;;;26.83;5.43;;;;;;;;;;5028728;28;20053;-78
2023/12/10 06:35:34;;;;;;;26.40;4.70;;;;;;;;;;5012770;28;21771;-77
2023/12/10 06:38:00;;;;;;;24.60;5.17;;;;;;;;;;5013524;28;20036;-77
2023/12/10 06:40:26;;;;;;;27.80;5.27;;;;;;;;;;5012547;28;20041;-76
2023/12/10 06:42:58;;;;;;;20.20;4.50;;;;;;;;;;5012321;28;20034;-78
2023/12/10 06:45:24;;;;;;;30.42;4.60;;;;;;;;;;5012998;28;20107;-78
2023/12/10 06:47:50;;;;;;;20.33;4.37;;;;;;;;;;5011476;28;20474;-77
2023/12/10 06:50:19;;;;;;;25.77;5.07;;;;;;;;;;5011424;28;20087;-78
2023/12/10 06:52:45;;;;;;;26.87;3.90;;;;;;;;;;5029085;28;20033;-78
2023/12/10 06:55:11;;;;;;;28.53;4.80;;;;;;;;;;5013495;28;20021;-77
2023/12/10 06:57:39;;;;;;;26.43;4.03;;;;;;;;;;5011742;28;20526;-78
2023/12/10 07:00:05;;;;;;;23.83;3.73;;;;;;;;;;5010486;28;20033;-78
2023/12/10 07:02:34;;;;;;;26.83;3.83;;;;;;;;;;5011568;28;20083;-77
2023/12/10 07:05:00;;;;;;;34.03;5.83;;;;;;;;;;5013474;28;20033;-78
2023/12/10 07:07:26;;;;;;;30.60;4.87;;;;;;;;;;5015265;28;20037;-77
2023/12/10 07:09:52;;;;;;;19.70;4.70;;;;;;;;;;5016114;28;20026;-77
2023/12/10 07:12:18;;;;;;;25.67;3.63;;;;;;;;;;5014489;28;20362;-77
2023/12/10 07:14:44;;;;;;;24.57;4.13;;;;;;;;;;5029357;28;20087;-78
2023/12/10 07:17:10;;;;;;;22.10;3.70;;;;;;;;;;5012260;28;20091;-77
2023/12/10 07:19:36;;;;;;;24.03;4.20;;;;;;;;;;5011736;28;20037;-78
2023/12/10 07:22:02;;;;;;;28.50;4.13;;;;;;;;;;5012541;28;20631;-77
2023/12/10 07:24:30;;;;;;;28.67;4.53;;;;;;;;;;5011854;28;20041;-78
2023/12/10 07:26:56;;;;;;;23.73;3.73;;;;;;;;;;5013503;28;20029;-77
2023/12/10 07:29:22;;;;;;;31.20;4.77;;;;;;;;;;5012869;28;20470;-76
2023/12/10 07:31:48;;;;;;;25.73;3.83;;;;;;;;;;5014544;28;21392;-77
2023/12/10 07:34:14;;;;;;;23.60;5.80;;;;;;;;;;5013239;28;20037;-78
2023/12/10 07:36:40;;;;;;;26.40;4.30;;;;;;;;;;5013509;28;20064;-78
2023/12/10 07:39:07;;;;;;;26.00;4.37;;;;;;;;;;5028560;28;20068;-78
2023/12/10 07:41:33;;;;;;;31.40;4.30;;;;;;;;;;5029642;28;20082;-78
2023/12/10 07:43:59;;;;;;;27.07;4.70;;;;;;;;;;5011849;28;20033;-77
2023/12/10 07:46:25;;;;;;;28.47;4.63;;;;;;;;;;5012055;28;20450;-77
2023/12/10 07:48:51;;;;;;;25.30;4.03;;;;;;;;;;5012518;28;20056;-77
2023/12/10 07:51:17;;;;;;;20.20;4.50;;;;;;;;;;5015341;28;20047;-78
2023/12/10 07:53:43;;;;;;;18.30;3.90;;;;;;;;;;5018789;28;20044;-77
2023/12/10 07:56:09;;;;;;;23.17;4.83;;;;;;;;;;5018111;28;20040;-77
2023/12/10 07:58:36;;;;;;;30.60;4.47;;;;;;;;;;5014353;28;20030;-77
2023/12/10 08:01:02;;;;;;;21.30;3.30;;;;;;;;;;5011223;28;20089;-77
2023/12/10 08:03:28;;;;;;;25.27;4.37;;;;;;;;;;5011325;28;20030;-77
2023/12/10 08:05:54;;;;;;;19.83;3.30;;;;;;;;;;5028747;28;20052;-77
2023/12/10 08:08:20;;;;;;;27.70;5.13;;;;;;;;;;5029902;28;20060;-78
2023/12/10 08:10:46;;;;;;;27.97;4.43;;;;;;;;;;5012712;28;20032;-78
2023/12/10 08:13:12;;;;;;;24.67;4.00;;;;;;;;;;5030121;28;20037;-78
2023/12/10 08:15:38;;;;;;;25.67;3.73;;;;;;;;;;5030158;28;20108;-78
2023/12/10 08:18:04;;;;;;;29.57;4.70;;;;;;;;;;5014228;28;20121;-78
2023/12/10 08:20:30;;;;;;;37.77;4.70;;;;;;;;;;5011323;28;20437;-77
2023/12/10 08:22:56;;;;;;;19.97;4.90;;;;;;;;;;5010633;28;20026;-77
2023/12/10 08:25:22;;;;;;;28.00;4.80;;;;;;;;;;5012405;28;20343;-77
2023/12/10 08:27:48;;;;;;;17.73;3.53;;;;;;;;;;5012158;28;20040;-77
2023/12/10 08:30:14;;;;;;;25.00;4.03;;;;;;;;;;5015830;28;20029;-78
2023/12/10 08:32:40;;;;;;;21.53;3.83;;;;;;;;;;5017813;28;20125;-77
2023/12/10 08:35:07;;;;;;;22.93;4.10;;;;;;;;;;5014315;28;20467;-78
2023/12/10 08:37:33;;;;;;;22.07;3.93;;;;;;;;;;5014840;28;20033;-77
2023/12/10 08:39:59;;;;;;;25.10;5.20;;;;;;;;;;5013833;28;20476;-77
2023/12/10 08:42:27;;;;;;;25.73;3.70;;;;;;;;;;5030519;28;20064;-77
2023/12/10 08:44:53;;;;;;;31.60;4.80;;;;;;;;;;5012003;28;20053;-78
2023/12/10 08:47:19;;;;;;;23.37;4.87;;;;;;;;;;5015134;28;20173;-77
2023/12/10 08:49:45;;;;;;;24.57;4.60;;;;;;;;;;5032991;28;20199;-77
2023/12/10 08:52:11;;;;;;;22.13;3.87;;;;;;;;;;5015091;28;20033;-78
2023/12/10 08:54:37;;;;;;;31.50;4.37;;;;;;;;;;5015121;28;20037;-77
2023/12/10 08:57:03;;;;;;;26.47;3.73;;;;;;;;;;5015103;28;20052;-78
2023/12/10 08:59:29;;;;;;;25.23;4.20;;;;;;;;;;5015484;28;20064;-78
2023/12/10 09:01:57;;;;;;;22.97;3.53;;;;;;;;;;5014368;28;20609;-78
2023/12/10 09:04:23;;;;;;;12.53;3.03;;;;;;;;;;5015523;28;20061;-78
2023/12/10 09:06:49;;;;;;;24.63;3.87;;;;;;;;;;5010480;28;20074;-78
2023/12/10 09:09:15;;;;;;;22.40;3.73;;;;;;;;;;5032270;28;20718;-78
2023/12/10 09:11:41;;;;;;;20.77;4.73;;;;;;;;;;5030577;28;20047;-77
2023/12/10 09:14:10;;;;;;;20.53;4.17;;;;;;;;;;5011543;28;20044;-78
2023/12/10 09:16:36;;;;;;;32.03;5.27;;;;;;;;;;5029000;28;20116;-78
2023/12/10 09:19:02;;;;;;;29.30;4.27;;;;;;;;;;5014735;28;20040;-77
2023/12/10 09:21:28;;;;;;;29.83;5.13;;;;;;;;;;5013856;28;20029;-78
2023/12/10 09:23:54;;;;;;;20.53;3.63;;;;;;;;;;5014554;28;20104;-78
2023/12/10 09:26:20;;;;;;;21.93;3.73;;;;;;;;;;5011291;28;20409;-78
2023/12/10 09:28:46;;;;;;;19.90;3.50;;;;;;;;;;5011540;28;20025;-76
2023/12/10 09:31:12;;;;;;;23.43;3.50;;;;;;;;;;5015587;28;20039;-78
2023/12/10 09:33:38;;;;;;;22.37;3.33;;;;;;;;;;5032807;28;20079;-78
2023/12/10 09:36:04;;;;;;;25.17;3.70;;;;;;;;;;5014836;28;20370;-78
2023/12/10 09:38:31;;;;;;;29.37;4.37;;;;;;;;;;5029177;28;20232;-79
2023/12/10 09:40:59;;;;;;;27.37;4.70;;;;;;;;;;5015168;28;20025;-78
2023/12/10 09:43:25;;;;;;;25.17;3.87;;;;;;;;;;5016116;28;20040;-78
2023/12/10 09:45:51;;;;;;;18.63;3.30;;;;;;;;;;5015568;28;20029;-78
2023/12/10 09:48:17;;;;;;;27.07;4.53;;;;;;;;;;5013820;28;20077;-79
2023/12/10 09:50:45;;;;;;;21.80;4.87;;;;;;;;;;5016197;28;20041;-79
2023/12/10 09:53:11;;;;;;;16.70;3.40;;;;;;;;;;5029128;28;20040;-77
2023/12/10 09:55:38;;;;;;;21.00;3.60;;;;;;;;;;5016185;28;20374;-78
2023/12/10 09:58:04;;;;;;;19.53;4.00;;;;;;;;;;5015177;28;20555;-79
2023/12/10 10:00:32;;;;;;;21.47;3.90;;;;;;;;;;5014370;28;20068;-78
2023/12/10 10:03:01;;;;;;;20.37;3.53;;;;;;;;;;5014610;28;20476;-78
2023/12/10 10:05:28;;;;;;;22.57;3.70;;;;;;;;;;5031340;28;20029;-78
2023/12/10 10:07:54;;;;;;;23.87;4.57;;;;;;;;;;5016275;28;20041;-78
2023/12/10 10:10:22;;;;;;;38.80;7.77;;;;;;;;;;5017523;28;20116;-81
2023/12/10 10:12:48;;;;;;;27.00;5.23;;;;;;;;;;5019764;28;20029;-80
2023/12/10 10:15:14;;;;;;;26.93;5.67;;;;;;;;;;5033094;28;20025;-81
2023/12/10 10:17:43;;;;;;;22.63;3.60;;;;;;;;;;5020508;28;20041;-80
2023/12/10 10:20:09;;;;;;;34.50;4.73;;;;;;;;;;5037345;28;20022;-80
2023/12/10 10:22:35;;;;;;;22.40;5.47;;;;;;;;;;5038849;28;20048;-81
2023/12/10 10:25:03;;;;;;;23.30;4.87;;;;;;;;;;5023691;28;20021;-82
2023/12/10 10:27:32;;;;;;;27.53;4.00;;;;;;;;;;5019285;28;21776;-80
2023/12/10 10:29:58;;;;;;;23.57;3.90;;;;;;;;;;5022367;28;20048;-81
2023/12/10 10:32:24;;;;;;;24.87;4.27;;;;;;;;;;5039655;28;20033;-80
2023/12/10 10:34:51;;;;;;;32.50;4.83;;;;;;;;;;5024146;28;20120;-82
2023/12/10 10:37:17;;;;;;;22.67;4.10;;;;;;;;;;5026479;28;20029;-81
2023/12/10 10:39:44;;;;;;;28.40;5.57;;;;;;;;;;5025240;28;20086;-81
2023/12/10 10:42:11;;;;;;;26.67;4.60;;;;;;;;;;5029678;28;20021;-82
2023/12/10 10:44:37;;;;;;;24.87;5.07;;;;;;;;;;5034933;28;20025;-83
2023/12/10 10:47:05;;;;;;;30.33;4.97;;;;;;;;;;5041253;28;20343;-82
2023/12/10 10:49:39;;;;;;;21.97;4.13;;;;;;;;;;5023458;28;20427;-82
2023/12/10 10:52:10;;;;;;;25.87;4.97;;;;;;;;;;5024252;28;20033;-82
2023/12/10 10:54:39;;;;;;;30.93;4.73;;;;;;;;;;5028462;28;20040;-82
2023/12/10 10:57:06;;;;;;;35.03;5.10;;;;;;;;;;5014788;28;20025;-83
2023/12/10 10:59:36;;;;;;;25.37;4.97;;;;;;;;;;5032973;28;20097;-82
2023/12/10 11:02:08;;;;;;;29.40;5.03;;;;;;;;;;5028927;28;20129;-82
2023/12/10 11:04:35;;;;;;;19.80;3.97;;;;;;;;;;5047813;28;20025;-82
2023/12/10 11:07:17;;;;;;;29.77;4.83;;;;;;;;;;5029282;28;20432;-83
2023/12/10 11:09:58;;;;;;;26.25;5.15;;;;;;;;;;5037358;28;20028;-83
2023/12/10 11:12:48;;;;;;;27.83;4.57;;;;;;;;;;5034635;28;20010;-83
2023/12/10 11:15:14;;;;;;;19.67;3.97;;;;;;;;;;5033143;28;20037;-78
2023/12/10 11:17:57;;;;;;;22.47;3.90;;;;;;;;;;5016488;28;20120;-78
2023/12/10 11:20:32;;;;;;;25.20;5.88;;;;;;;;;;5004786;28;20030;-78
2023/12/10 11:23:01;;;;;;;29.07;5.10;;;;;;;;;;5018499;28;20045;-81
2023/12/10 11:25:30;;;;;;;26.60;4.77;;;;;;;;;;5018032;28;20087;-78
2023/12/10 11:27:59;;;;;;;20.07;3.53;;;;;;;;;;5017460;28;20029;-78
2023/12/10 11:30:26;;;;;;;18.27;3.87;;;;;;;;;;5003738;28;20025;-78
2023/12/10 11:32:52;;;;;;;25.77;4.17;;;;;;;;;;5025073;28;20071;-78
2023/12/10 11:35:18;;;;;;;21.77;4.90;;;;;;;;;;5014416;28;20060;-78
2023/12/10 11:37:44;;;;;;;27.07;5.67;;;;;;;;;;5005946;28;20102;-79
2023/12/10 11:40:11;;;;;;;29.00;4.03;;;;;;;;;;5011564;28;20025;-78
2023/12/10 11:42:37;;;;;;;27.17;3.47;;;;;;;;;;5015187;28;20026;-78
2023/12/10 11:45:04;;;;;;;26.23;4.47;;;;;;;;;;5017394;28;20033;-78
2023/12/10 11:47:30;;;;;;;25.50;4.43;;;;;;;;;;5016829;28;20033;-78
2023/12/10 11:49:56;;;;;;;23.90;4.40;;;;;;;;;;5014891;28;20087;-79
2023/12/10 11:52:23;;;;;;;27.77;4.80;;;;;;;;;;5034394;28;20033;-78
2023/12/10 11:54:49;;;;;;;31.73;6.13;;;;;;;;;;5012748;28;20109;-78
2023/12/10 11:57:15;;;;;;;18.83;4.40;;;;;;;;;;5007186;28;20119;-78
2023/12/10 11:59:44;;;;;;;20.27;5.23;;;;;;;;;;5012644;28;20047;-78
2023/12/10 12:02:10;;;;;;;27.87;5.90;;;;;;;;;;5028120;28;20042;-78
2023/12/10 12:04:36;;;;;;;29.67;5.03;;;;;;;;;;5019652;28;20033;-78
2023/12/10 12:07:02;;;;;;;24.10;4.77;;;;;;;;;;5019124;28;20053;-78
2023/12/10 12:09:30;;;;;;;32.33;5.20;;;;;;;;;;5013762;28;20034;-77
2023/12/10 12:11:56;;;;;;;27.33;4.87;;;;;;;;;;5017330;28;20025;-78
2023/12/10 12:14:23;;;;;;;44.50;5.60;;;;;;;;;;5030440;28;20028;-78
2023/12/10 12:16:49;;;;;;;26.80;5.03;;;;;;;;;;5018902;28;20408;-78
2023/12/10 12:19:28;;;;;;;28.13;4.60;;;;;;;;;;5022413;28;20128;-78
2023/12/10 12:21:57;;;;;;;27.07;4.47;;;;;;;;;;5017565;28;20034;-77
2023/12/10 12:24:23;;;;;;;25.47;4.23;;;;;;;;;;5012505;28;20056;-77
2023/12/10 12:26:50;;;;;;;28.23;5.60;;;;;;;;;;5029974;28;20025;-78
2023/12/10 12:29:16;;;;;;;28.43;5.07;;;;;;;;;;5032108;28;20037;-77
2023/12/10 12:31:42;;;;;;;28.90;5.23;;;;;;;;;;5016863;28;20450;-78
2023/12/10 12:34:08;;;;;;;28.70;5.37;;;;;;;;;;5034140;28;20033;-79
2023/12/10 12:36:34;;;;;;;40.17;6.00;;;;;;;;;;5011358;28;20025;-77
2023/12/10 12:39:03;;;;;;;31.83;5.67;;;;;;;;;;5030535;28;20128;-78
2023/12/10 12:41:29;;;;;;;27.53;4.67;;;;;;;;;;5030729;28;20453;-77
2023/12/10 12:43:56;;;;;;;28.77;4.73;;;;;;;;;;5016841;28;20052;-78
2023/12/10 12:46:22;;;;;;;29.20;6.17;;;;;;;;;;5016053;28;20061;-77
2023/12/10 12:48:48;;;;;;;32.03;5.43;;;;;;;;;;5016548;28;20025;-78
2023/12/10 12:51:14;;;;;;;25.13;4.83;;;;;;;;;;5016227;28;20048;-77
2023/12/10 12:53:40;;;;;;;23.60;4.73;;;;;;;;;;5015320;28;20441;-78
2023/12/10 12:56:09;;;;;;;22.27;4.53;;;;;;;;;;5015534;28;20040;-78
2023/12/10 12:58:35;;;;;;;30.00;5.17;;;;;;;;;;5015506;28;20100;-78
2023/12/10 13:01:01;;;;;;;32.50;6.40;;;;;;;;;;5016059;28;20565;-78
2023/12/10 13:03:27;;;;;;;35.40;6.27;;;;;;;;;;5017205;28;20025;-77
2023/12/10 13:05:53;;;;;;;29.27;5.17;;;;;;;;;;5014884;28;20037;-78
2023/12/10 13:08:19;;;;;;;30.33;4.43;;;;;;;;;;5032524;28;20029;-78
2023/12/10 13:10:45;;;;;;;26.13;5.43;;;;;;;;;;5014703;28;20124;-77
2023/12/10 13:13:13;;;;;;;21.73;4.93;;;;;;;;;;5011335;28;20133;-77
2023/12/10 13:15:39;;;;;;;27.60;4.40;;;;;;;;;;5015919;28;20043;-78
2023/12/10 13:18:06;;;;;;;26.63;5.47;;;;;;;;;;5033154;28;20025;-77
2023/12/10 13:20:32;;;;;;;35.20;5.13;;;;;;;;;;5016363;28;20530;-78
2023/12/10 13:22:58;;;;;;;25.00;4.30;;;;;;;;;;5015632;28;20124;-78
2023/12/10 13:25:24;;;;;;;23.83;4.80;;;;;;;;;;5015882;28;20120;-78
2023/12/10 13:27:50;;;;;;;23.87;4.50;;;;;;;;;;5028717;28;20060;-77
2023/12/10 13:30:17;;;;;;;34.97;5.57;;;;;;;;;;5014393;28;20065;-77
2023/12/10 13:32:43;;;;;;;26.10;5.37;;;;;;;;;;5014547;28;20120;-77
2023/12/10 13:35:09;;;;;;;30.40;5.90;;;;;;;;;;5012418;28;20116;-77
2023/12/10 13:37:35;;;;;;;23.50;4.80;;;;;;;;;;5012944;28;20033;-77
2023/12/10 13:40:01;;;;;;;27.47;4.80;;;;;;;;;;5015608;28;20033;-78
2023/12/10 13:42:29;;;;;;;31.67;5.30;;;;;;;;;;5014552;28;20037;-78
2023/12/10 13:44:55;;;;;;;27.87;5.33;;;;;;;;;;5015186;28;20116;-79
2023/12/10 13:47:21;;;;;;;21.77;5.03;;;;;;;;;;5016419;28;20041;-78
2023/12/10 13:49:47;;;;;;;23.07;3.90;;;;;;;;;;5031969;28;20430;-78
2023/12/10 13:52:13;;;;;;;32.67;6.37;;;;;;;;;;5013987;28;20052;-78
2023/12/10 13:54:39;;;;;;;30.73;4.37;;;;;;;;;;5014500;28;20029;-79
2023/12/10 13:57:08;;;;;;;25.33;4.63;;;;;;;;;;5031673;28;20496;-77
2023/12/10 13:59:34;;;;;;;25.67;4.70;;;;;;;;;;5015065;28;20493;-78
2023/12/10 14:02:00;;;;;;;26.70;4.77;;;;;;;;;;5012643;28;20055;-78
2023/12/10 14:04:26;;;;;;;21.23;4.03;;;;;;;;;;5014753;28;20029;-78
2023/12/10 14:06:52;;;;;;;25.23;5.07;;;;;;;;;;5014097;28;20029;-78
2023/12/10 14:09:18;;;;;;;43.67;6.70;;;;;;;;;;5013322;28;20033;-77
2023/12/10 14:11:44;;;;;;;16.70;4.77;;;;;;;;;;5013276;28;20453;-78
2023/12/10 14:14:10;;;;;;;30.37;6.47;;;;;;;;;;5011024;28;20451;-77
2023/12/10 14:16:36;;;;;;;22.87;5.40;;;;;;;;;;5013772;28;20025;-77
2023/12/10 14:19:02;;;;;;;25.97;7.37;;;;;;;;;;5009820;28;20038;-77
2023/12/10 14:21:28;;;;;;;27.47;4.57;;;;;;;;;;5013794;28;20056;-79
2023/12/10 14:23:54;;;;;;;24.63;4.60;;;;;;;;;;5012373;28;20029;-77
2023/12/10 14:26:20;;;;;;;30.93;6.33;;;;;;;;;;5028924;28;20688;-77
2023/12/10 14:28:46;;;;;;;27.33;5.17;;;;;;;;;;5011730;28;20040;-77